Time;durP1;ratioP1;P1;durP2;ratioP2;P2;SDS_P1;SDS_P2;PMS_P1;PMS_P2;Temp;Humidity;BMP_temperature;BMP_pressure;BME280_temperature;BME280_humidity;BME280_pressure;Samples;Min_cycle;Max_cycle;Signal;HPM_P1;HPM_P2
2021/12/30 00:01:41;;;;;;;0.32;0.30;;;12.20;99.90;;;;;;4972916;28;20034;-77
2021/12/30 00:04:08;;;;;;;2.20;0.30;;;12.20;99.90;;;;;;4972335;28;20042;-77
2021/12/30 00:06:39;;;;;;;0.30;0.30;;;12.10;99.90;;;;;;4972909;28;20023;-77
2021/12/30 00:09:11;;;;;;;0.28;0.20;;;12.00;99.90;;;;;;4971346;28;20034;-77
2021/12/30 00:11:38;;;;;;;0.40;0.30;;;12.00;99.90;;;;;;4972055;28;20058;-77
2021/12/30 00:14:04;;;;;;;0.57;0.30;;;12.00;99.90;;;;;;4963813;28;20404;-77
2021/12/30 00:16:30;;;;;;;0.85;0.22;;;12.00;99.90;;;;;;4972471;28;20480;-77
2021/12/30 00:18:56;;;;;;;1.65;0.30;;;12.10;99.90;;;;;;4972836;28;20087;-77
2021/12/30 00:21:23;;;;;;;1.60;0.20;;;12.10;99.90;;;;;;4972190;28;20026;-77
2021/12/30 00:23:49;;;;;;;1.42;0.30;;;12.10;99.90;;;;;;4974924;28;20117;-76
2021/12/30 00:26:15;;;;;;;0.25;0.25;;;12.30;99.90;;;;;;4975428;28;20093;-75
2021/12/30 00:28:41;;;;;;;0.70;0.32;;;12.30;99.90;;;;;;4976651;28;20031;-78
2021/12/30 00:31:07;;;;;;;0.40;0.30;;;12.40;99.90;;;;;;4975964;28;20078;-77
2021/12/30 00:33:34;;;;;;;1.75;0.50;;;12.30;99.90;;;;;;4976355;28;20038;-78
2021/12/30 00:36:02;;;;;;;2.53;0.63;;;12.40;99.90;;;;;;4975795;28;20122;-72
2021/12/30 00:38:28;;;;;;;2.03;0.80;;;12.60;99.90;;;;;;4976472;28;20106;-77
2021/12/30 00:40:54;;;;;;;2.17;0.47;;;12.70;99.90;;;;;;4976397;28;20034;-77
2021/12/30 00:43:20;;;;;;;0.70;0.38;;;12.70;99.90;;;;;;4967913;28;20178;-77
2021/12/30 00:45:45;;;;;;;1.50;0.40;;;12.80;99.90;;;;;;4975980;28;20448;-76
2021/12/30 00:48:11;;;;;;;1.83;0.73;;;12.80;99.90;;;;;;4975376;28;20027;-77
2021/12/30 00:50:39;;;;;;;3.30;0.52;;;12.80;99.90;;;;;;4976083;28;20428;-76
2021/12/30 00:53:06;;;;;;;2.35;0.35;;;12.90;99.90;;;;;;4975308;28;20027;-77
2021/12/30 00:55:33;;;;;;;1.42;0.50;;;13.00;99.90;;;;;;4976228;28;20034;-77
2021/12/30 00:57:59;;;;;;;1.48;0.30;;;12.90;99.90;;;;;;4975553;28;20106;-73
2021/12/30 01:00:25;;;;;;;1.40;0.50;;;12.90;99.90;;;;;;4976492;28;20042;-77
2021/12/30 01:02:51;;;;;;;2.63;0.80;;;12.90;99.90;;;;;;4976114;28;20158;-77
2021/12/30 01:05:17;;;;;;;1.48;0.50;;;12.80;99.90;;;;;;4974834;28;20401;-77
2021/12/30 01:07:43;;;;;;;1.00;0.55;;;12.70;99.90;;;;;;4975941;28;20050;-77
2021/12/30 01:10:12;;;;;;;0.82;0.50;;;12.60;99.90;;;;;;4974781;28;20455;-77
2021/12/30 01:12:38;;;;;;;0.52;0.20;;;12.50;99.90;;;;;;4973796;28;20234;-77
2021/12/30 01:15:09;;;;;;;0.82;0.30;;;12.50;99.90;;;;;;4969090;28;20361;-76
2021/12/30 01:20:13;;;;;;;0.80;0.30;;;12.50;99.90;;;;;;4974932;28;20138;-78
2021/12/30 01:22:39;;;;;;;2.05;0.52;;;12.40;99.90;;;;;;4975174;28;20033;-77
2021/12/30 01:25:07;;;;;;;0.85;0.60;;;12.40;99.90;;;;;;4974658;28;20039;-76
2021/12/30 01:27:36;;;;;;;2.42;0.63;;;12.30;99.90;;;;;;4974823;28;20042;-78
2021/12/30 01:30:05;;;;;;;3.05;0.60;;;12.30;99.90;;;;;;4974839;28;20547;-73
2021/12/30 01:32:30;;;;;;;2.92;0.50;;;12.30;99.90;;;;;;4975198;28;20030;-78
2021/12/30 01:34:56;;;;;;;1.13;0.50;;;12.30;99.90;;;;;;4974762;28;20086;-77
2021/12/30 01:37:23;;;;;;;2.60;0.40;;;12.40;99.90;;;;;;4974408;28;20089;-77
2021/12/30 01:39:50;;;;;;;1.15;0.40;;;12.50;99.90;;;;;;4967561;28;20062;-77
2021/12/30 01:42:15;;;;;;;0.70;0.30;;;12.50;99.90;;;;;;4974308;28;20089;-77
2021/12/30 01:44:41;;;;;;;0.35;0.30;;;12.50;99.90;;;;;;4973873;28;20031;-78
2021/12/30 01:47:08;;;;;;;5.32;0.95;;;12.50;99.90;;;;;;4974187;28;20031;-77
2021/12/30 01:49:34;;;;;;;1.55;0.50;;;12.40;99.90;;;;;;4975159;28;20034;-77
2021/12/30 01:52:00;;;;;;;1.50;0.65;;;12.40;99.90;;;;;;4974673;28;20027;-73
2021/12/30 01:54:27;;;;;;;3.25;0.95;;;12.30;99.90;;;;;;4974041;28;20117;-77
2021/12/30 01:56:55;;;;;;;3.05;0.57;;;12.20;99.90;;;;;;4974930;28;20392;-77
2021/12/30 01:59:23;;;;;;;1.55;0.60;;;12.20;99.90;;;;;;4974161;28;20036;-77
2021/12/30 02:01:56;;;;;;;2.80;0.93;;;12.10;99.90;;;;;;4974875;28;20170;-77
2021/12/30 02:04:24;;;;;;;1.77;0.70;;;12.00;99.90;;;;;;4972889;28;20125;-77
2021/12/30 02:06:50;;;;;;;2.60;0.70;;;11.90;99.90;;;;;;4974764;28;20034;-77
2021/12/30 02:09:18;;;;;;;1.42;0.93;;;11.90;99.90;;;;;;4973686;28;20031;-76
2021/12/30 02:11:44;;;;;;;2.20;0.50;;;11.90;99.90;;;;;;4974693;28;20035;-76
2021/12/30 02:14:09;;;;;;;1.98;0.80;;;11.80;99.90;;;;;;4973918;28;20493;-75
2021/12/30 02:16:37;;;;;;;2.47;0.70;;;11.80;99.90;;;;;;4972877;28;20427;-77
2021/12/30 02:19:03;;;;;;;4.82;0.63;;;11.80;99.90;;;;;;4974132;28;20078;-72
2021/12/30 02:21:29;;;;;;;2.05;0.50;;;11.70;99.90;;;;;;4974097;28;20031;-76
2021/12/30 02:23:57;;;;;;;3.78;0.70;;;11.80;99.90;;;;;;4974210;28;20460;-77
2021/12/30 02:26:23;;;;;;;2.95;0.68;;;11.80;99.90;;;;;;4973761;28;20022;-76
2021/12/30 02:28:48;;;;;;;4.85;0.90;;;11.80;99.90;;;;;;4974373;28;20038;-77
2021/12/30 02:31:18;;;;;;;4.05;1.17;;;11.80;99.90;;;;;;4973704;28;20110;-77
2021/12/30 02:33:45;;;;;;;2.45;0.60;;;11.80;99.90;;;;;;4974234;28;20050;-77
2021/12/30 02:36:11;;;;;;;1.70;0.55;;;11.80;99.90;;;;;;4973325;28;20105;-76
2021/12/30 02:38:37;;;;;;;2.40;0.95;;;11.80;99.90;;;;;;4974289;28;20026;-77
2021/12/30 02:41:03;;;;;;;3.72;0.70;;;11.90;99.90;;;;;;4973518;28;20487;-72
2021/12/30 02:43:31;;;;;;;0.90;0.60;;;11.90;99.90;;;;;;4973715;28;20038;-76
2021/12/30 02:45:59;;;;;;;1.00;0.57;;;11.80;99.90;;;;;;4973340;28;20132;-76
2021/12/30 02:48:27;;;;;;;2.63;0.68;;;11.90;99.90;;;;;;4973370;28;20038;-77
2021/12/30 02:50:57;;;;;;;1.92;0.55;;;12.00;99.90;;;;;;4973936;28;20027;-77
2021/12/30 02:53:23;;;;;;;1.90;0.70;;;11.90;99.90;;;;;;4973590;28;20472;-77
2021/12/30 02:55:50;;;;;;;3.60;0.80;;;11.80;99.90;;;;;;4973812;28;20114;-77
2021/12/30 02:58:16;;;;;;;3.22;0.93;;;11.70;99.90;;;;;;4973489;28;20030;-77
2021/12/30 03:00:44;;;;;;;2.25;0.68;;;11.60;99.90;;;;;;4973858;28;20033;-77
2021/12/30 03:03:24;;;;;;;2.42;0.80;;;11.50;99.90;;;;;;4972979;28;20031;-77
2021/12/30 03:05:55;;;;;;;1.30;0.45;;;11.50;99.90;;;;;;4973616;28;20162;-76
2021/12/30 03:08:20;;;;;;;3.35;0.68;;;11.60;99.90;;;;;;4972865;28;20383;-76
2021/12/30 03:10:46;;;;;;;2.42;0.60;;;11.70;99.90;;;;;;4973287;28;20026;-77
2021/12/30 03:13:14;;;;;;;2.60;0.85;;;11.80;99.90;;;;;;4972392;28;20578;-77
2021/12/30 03:15:41;;;;;;;1.60;0.80;;;11.80;99.90;;;;;;4973452;28;20077;-77
2021/12/30 03:18:07;;;;;;;3.35;1.48;;;11.90;99.90;;;;;;4972971;28;20420;-75
2021/12/30 03:20:36;;;;;;;4.07;1.77;;;11.90;99.90;;;;;;4973527;28;20380;-77
2021/12/30 03:23:03;;;;;;;4.60;2.30;;;11.90;99.90;;;;;;4955216;28;20027;-73
2021/12/30 03:25:29;;;;;;;2.90;1.23;;;11.90;99.90;;;;;;4973017;28;20102;-77
2021/12/30 03:27:55;;;;;;;3.03;0.90;;;11.90;99.90;;;;;;4973488;28;20050;-77
2021/12/30 03:30:21;;;;;;;1.17;0.60;;;11.90;99.90;;;;;;4972541;28;20058;-76
2021/12/30 03:32:48;;;;;;;1.92;0.75;;;11.90;99.90;;;;;;4973506;28;20081;-76
2021/12/30 03:35:14;;;;;;;2.42;0.90;;;11.90;99.90;;;;;;4972288;28;20037;-78
2021/12/30 03:37:40;;;;;;;2.65;0.93;;;11.90;99.90;;;;;;4973220;28;20026;-77
2021/12/30 03:40:11;;;;;;;0.93;0.57;;;11.90;99.90;;;;;;4972416;28;20031;-73
2021/12/30 03:42:36;;;;;;;1.35;0.50;;;11.90;99.90;;;;;;4973177;28;20086;-76
2021/12/30 03:45:06;;;;;;;1.60;0.77;;;11.90;99.90;;;;;;4973385;28;20031;-78
2021/12/30 03:47:34;;;;;;;1.10;0.60;;;11.90;99.90;;;;;;4973231;28;20023;-76
2021/12/30 03:50:00;;;;;;;1.20;0.73;;;11.90;99.90;;;;;;4973306;28;20109;-78
2021/12/30 03:52:30;;;;;;;1.73;0.80;;;11.90;99.90;;;;;;4971981;28;20198;-79
2021/12/30 03:54:56;;;;;;;;;;;11.90;99.90;;;;;;4973653;28;20066;-80
2021/12/30 03:57:21;;;;;;;2.08;0.50;;;11.90;99.90;;;;;;4974102;28;20320;-76
2021/12/30 03:59:47;;;;;;;0.70;0.45;;;11.90;99.90;;;;;;4977013;28;20088;-81
2021/12/30 04:02:13;;;;;;;1.58;0.60;;;11.90;99.90;;;;;;4976598;28;20034;-80
2021/12/30 04:04:38;;;;;;;1.88;0.55;;;11.90;99.90;;;;;;4976858;28;20035;-81
2021/12/30 04:07:04;;;;;;;0.63;0.20;;;12.00;99.90;;;;;;4976780;28;20050;-74
2021/12/30 04:09:30;;;;;;;1.17;0.40;;;12.10;99.90;;;;;;4975888;28;20026;-77
2021/12/30 04:11:56;;;;;;;1.85;0.40;;;12.20;99.90;;;;;;4976600;28;20038;-79
2021/12/30 04:14:26;;;;;;;0.75;0.40;;;12.20;99.90;;;;;;4976266;28;20431;-77
2021/12/30 04:16:54;;;;;;;1.45;0.38;;;12.20;99.90;;;;;;4976881;28;20038;-80
2021/12/30 04:19:21;;;;;;;0.40;0.20;;;12.20;99.90;;;;;;4976173;28;20117;-79
2021/12/30 04:21:46;;;;;;;0.85;0.70;;;12.20;99.90;;;;;;4976655;28;20031;-77
2021/12/30 04:24:12;;;;;;;0.32;0.30;;;12.20;99.90;;;;;;4975392;28;20050;-77
2021/12/30 04:26:38;;;;;;;1.25;0.40;;;12.10;99.90;;;;;;4976189;28;20039;-77
2021/12/30 04:29:07;;;;;;;0.43;0.20;;;12.10;99.90;;;;;;4976682;28;20407;-77
2021/12/30 04:31:32;;;;;;;0.40;0.20;;;12.10;99.90;;;;;;4975968;28;20085;-76
2021/12/30 04:33:59;;;;;;;1.17;0.30;;;12.20;99.90;;;;;;4976557;28;20464;-78
2021/12/30 04:36:25;;;;;;;0.70;0.30;;;12.10;99.90;;;;;;4975649;28;20042;-76
2021/12/30 04:38:50;;;;;;;0.52;0.40;;;12.10;99.90;;;;;;4976825;28;20110;-76
2021/12/30 04:41:16;;;;;;;1.40;0.70;;;12.10;99.90;;;;;;4975511;28;20446;-76
2021/12/30 04:43:42;;;;;;;0.55;0.22;;;12.10;99.90;;;;;;4975973;28;20129;-76
2021/12/30 04:46:08;;;;;;;1.65;0.28;;;12.20;99.90;;;;;;4958209;28;20042;-72
2021/12/30 04:48:33;;;;;;;1.35;0.30;;;12.20;99.90;;;;;;4975731;28;20462;-76
2021/12/30 04:50:59;;;;;;;0.32;0.28;;;12.20;99.90;;;;;;4975779;28;20027;-76
2021/12/30 04:53:25;;;;;;;0.30;0.30;;;12.20;99.90;;;;;;4974871;28;20185;-76
2021/12/30 04:55:50;;;;;;;1.85;0.20;;;12.20;99.90;;;;;;4975420;28;20114;-75
2021/12/30 04:58:17;;;;;;;1.02;0.30;;;12.20;99.90;;;;;;4975049;28;20022;-77
2021/12/30 05:00:43;;;;;;;1.13;0.20;;;12.20;99.90;;;;;;4975332;28;20396;-76
2021/12/30 05:05:40;;;;;;;0.85;0.22;;;12.10;99.90;;;;;;4975403;28;20432;-76
2021/12/30 05:08:06;;;;;;;0.50;0.20;;;12.10;99.90;;;;;;4975032;28;20133;-72
2021/12/30 05:10:32;;;;;;;3.38;0.25;;;12.10;99.90;;;;;;4974656;28;20034;-76
2021/12/30 05:12:59;;;;;;;0.35;0.20;;;12.10;99.90;;;;;;4975267;28;20046;-77
2021/12/30 05:15:24;;;;;;;0.95;0.30;;;12.10;99.90;;;;;;4974591;28;20114;-78
2021/12/30 05:17:50;;;;;;;1.00;0.35;;;12.10;99.90;;;;;;4975224;28;20102;-77
2021/12/30 05:20:16;;;;;;;1.92;0.30;;;12.00;99.90;;;;;;4974621;28;20034;-77
2021/12/30 05:22:43;;;;;;;0.90;0.20;;;12.00;99.90;;;;;;4974434;28;20027;-76
2021/12/30 05:25:12;;;;;;;0.20;0.20;;;12.00;99.90;;;;;;4969252;28;20042;-72
2021/12/30 05:27:39;;;;;;;0.65;0.20;;;12.10;99.90;;;;;;4975134;28;20464;-75
2021/12/30 05:30:06;;;;;;;0.20;0.20;;;12.10;99.90;;;;;;4974883;28;20058;-77
2021/12/30 05:32:33;;;;;;;0.95;0.30;;;12.10;99.90;;;;;;4974383;28;20535;-77
2021/12/30 05:34:58;;;;;;;0.20;0.20;;;12.10;99.90;;;;;;4975009;28;20035;-76
2021/12/30 05:37:24;;;;;;;0.22;0.15;;;12.10;99.90;;;;;;4974304;28;20529;-78
2021/12/30 05:39:50;;;;;;;0.50;0.30;;;12.10;99.90;;;;;;4974764;28;20085;-78
2021/12/30 05:42:15;;;;;;;0.80;0.30;;;12.20;99.90;;;;;;4973359;28;20030;-78
2021/12/30 05:44:41;;;;;;;0.50;0.10;;;12.10;99.90;;;;;;4975172;28;20038;-79
2021/12/30 05:47:07;;;;;;;0.50;0.20;;;12.10;99.90;;;;;;4974922;28;20035;-79
2021/12/30 05:49:33;;;;;;;0.43;0.30;;;12.10;99.90;;;;;;4973926;28;20034;-78
2021/12/30 05:51:58;;;;;;;0.30;0.30;;;12.10;99.90;;;;;;4974711;28;20042;-79
2021/12/30 05:54:24;;;;;;;0.30;0.20;;;12.10;99.90;;;;;;4972831;28;20027;-77
2021/12/30 05:56:50;;;;;;;0.75;0.25;;;12.00;99.90;;;;;;4974558;28;20029;-77
2021/12/30 05:59:16;;;;;;;0.25;0.20;;;12.00;99.90;;;;;;4973819;28;20031;-78
2021/12/30 06:01:42;;;;;;;1.63;0.30;;;12.10;99.90;;;;;;4974554;28;20030;-76
2021/12/30 06:04:07;;;;;;;0.22;0.20;;;12.00;99.90;;;;;;4970884;28;20058;-76
2021/12/30 06:06:33;;;;;;;1.13;0.25;;;12.00;99.90;;;;;;4970720;28;20038;-75
2021/12/30 06:08:59;;;;;;;0.20;0.20;;;12.00;99.90;;;;;;4967601;28;20034;-78
2021/12/30 06:11:25;;;;;;;0.20;0.20;;;11.90;99.90;;;;;;4969557;28;20026;-76
2021/12/30 06:13:50;;;;;;;0.13;0.13;;;11.90;99.90;;;;;;4969785;28;20492;-76
2021/12/30 06:16:17;;;;;;;0.43;0.30;;;11.90;99.90;;;;;;4969708;28;20054;-76
2021/12/30 06:18:42;;;;;;;0.63;0.40;;;11.80;99.90;;;;;;4969682;28;20035;-77
2021/12/30 06:21:08;;;;;;;0.45;0.32;;;11.80;99.90;;;;;;4967842;28;20034;-73
2021/12/30 06:23:34;;;;;;;0.82;0.40;;;11.70;99.90;;;;;;4968753;28;20039;-78
2021/12/30 06:25:59;;;;;;;0.55;0.30;;;11.70;99.90;;;;;;4967501;28;20046;-73
2021/12/30 06:28:25;;;;;;;0.40;0.32;;;11.70;99.90;;;;;;4968892;28;20384;-77
2021/12/30 06:30:51;;;;;;;0.40;0.30;;;11.70;99.90;;;;;;4970216;28;20078;-77
2021/12/30 06:33:16;;;;;;;1.85;0.30;;;11.70;99.90;;;;;;4969769;28;20041;-77
2021/12/30 06:35:42;;;;;;;1.95;0.30;;;11.70;99.90;;;;;;4970600;28;20030;-76
2021/12/30 06:38:08;;;;;;;0.15;0.10;;;11.70;99.90;;;;;;4967578;28;20038;-77
2021/12/30 06:40:33;;;;;;;1.10;0.28;;;11.60;99.90;;;;;;4969518;28;20054;-77
2021/12/30 06:42:59;;;;;;;1.85;0.20;;;11.60;99.90;;;;;;4969933;28;20054;-77
2021/12/30 06:45:25;;;;;;;0.25;0.10;;;11.70;99.90;;;;;;4969468;28;20465;-77
2021/12/30 06:47:52;;;;;;;1.55;0.22;;;11.80;99.90;;;;;;4963834;28;20038;-76
2021/12/30 06:50:20;;;;;;;0.35;0.20;;;11.80;99.90;;;;;;4968433;28;20027;-77
2021/12/30 06:52:46;;;;;;;0.40;0.20;;;11.80;99.90;;;;;;4969850;28;20030;-77
2021/12/30 06:55:12;;;;;;;0.52;0.20;;;11.80;99.90;;;;;;4969068;28;20491;-73
2021/12/30 06:57:39;;;;;;;0.63;0.30;;;11.80;99.90;;;;;;4970055;28;20544;-78
2021/12/30 07:00:06;;;;;;;1.45;0.13;;;11.80;99.90;;;;;;4970219;28;20030;-79
2021/12/30 07:02:33;;;;;;;1.67;0.85;;;11.80;99.90;;;;;;4969464;28;20030;-79
2021/12/30 07:04:59;;;;;;;1.45;0.30;;;11.80;99.90;;;;;;4967718;28;20035;-79
2021/12/30 07:07:25;;;;;;;0.82;0.32;;;11.70;99.90;;;;;;4972023;28;20105;-79
2021/12/30 07:09:51;;;;;;;0.22;0.20;;;11.70;99.90;;;;;;4971615;28;20027;-78
2021/12/30 07:12:17;;;;;;;0.28;0.22;;;11.70;99.90;;;;;;4967933;28;20066;-79
2021/12/30 07:14:43;;;;;;;0.68;0.30;;;11.60;99.90;;;;;;4970494;28;20089;-78
2021/12/30 07:17:09;;;;;;;0.30;0.20;;;11.70;99.90;;;;;;4964914;28;20063;-72
2021/12/30 07:19:34;;;;;;;2.17;0.57;;;11.70;99.90;;;;;;4966802;28;20055;-77
2021/12/30 07:22:00;;;;;;;0.55;0.50;;;11.70;99.90;;;;;;4968188;28;20413;-78
2021/12/30 07:24:26;;;;;;;0.50;0.22;;;11.70;99.90;;;;;;4963071;28;20033;-79
2021/12/30 07:26:52;;;;;;;1.48;0.32;;;11.70;99.90;;;;;;4973720;28;20110;-79
2021/12/30 07:29:19;;;;;;;0.52;0.20;;;11.70;99.90;;;;;;4967975;28;20090;-73
2021/12/30 07:31:45;;;;;;;0.20;0.20;;;11.70;99.90;;;;;;4971857;28;20030;-78
2021/12/30 07:34:11;;;;;;;0.75;0.30;;;11.70;99.90;;;;;;4974628;28;20026;-77
2021/12/30 07:36:36;;;;;;;1.45;0.40;;;11.70;99.90;;;;;;4973606;28;20030;-76
2021/12/30 07:39:03;;;;;;;2.42;0.98;;;11.70;99.90;;;;;;4973801;28;20105;-77
2021/12/30 07:41:29;;;;;;;0.45;0.20;;;11.70;99.90;;;;;;4973036;28;20041;-76
2021/12/30 07:43:54;;;;;;;0.20;0.10;;;11.80;99.90;;;;;;4966974;28;20039;-75
2021/12/30 07:46:20;;;;;;;0.17;0.15;;;11.80;99.90;;;;;;4964971;28;20027;-74
2021/12/30 07:48:47;;;;;;;1.27;0.30;;;11.80;99.90;;;;;;4966976;28;20069;-74
2021/12/30 07:51:13;;;;;;;1.08;0.70;;;11.90;99.90;;;;;;4966749;28;20030;-75
2021/12/30 07:53:39;;;;;;;0.35;0.20;;;11.90;99.90;;;;;;4967093;28;20127;-76
2021/12/30 07:56:09;;;;;;;0.30;0.30;;;11.90;99.90;;;;;;4966938;28;20031;-74
2021/12/30 07:58:35;;;;;;;0.10;0.10;;;11.90;99.90;;;;;;4966809;28;20464;-75
2021/12/30 08:01:01;;;;;;;0.85;0.20;;;11.90;99.90;;;;;;4963750;28;20038;-73
2021/12/30 08:03:26;;;;;;;0.77;0.20;;;11.90;99.90;;;;;;4964237;28;20031;-74
2021/12/30 08:05:52;;;;;;;1.00;0.30;;;12.00;99.90;;;;;;4967637;28;20376;-77
2021/12/30 08:08:18;;;;;;;0.13;0.10;;;12.00;99.90;;;;;;4964766;28;20026;-77
2021/12/30 08:10:44;;;;;;;1.40;0.30;;;12.10;99.90;;;;;;4966629;28;20030;-77
2021/12/30 08:13:10;;;;;;;1.17;0.75;;;12.10;99.90;;;;;;4966209;28;20472;-72
2021/12/30 08:15:35;;;;;;;1.67;0.77;;;12.00;99.90;;;;;;4965637;28;20465;-77
2021/12/30 08:18:01;;;;;;;2.25;0.32;;;12.10;99.90;;;;;;4969631;28;20074;-74
2021/12/30 08:20:27;;;;;;;0.20;0.20;;;12.10;99.90;;;;;;4963995;28;20027;-74
2021/12/30 08:22:53;;;;;;;0.95;0.20;;;12.20;99.90;;;;;;4966756;28;20050;-75
2021/12/30 08:25:20;;;;;;;0.30;0.30;;;12.20;99.90;;;;;;4966871;28;20027;-75
2021/12/30 08:27:47;;;;;;;0.30;0.20;;;12.30;99.90;;;;;;4966851;28;20019;-75
2021/12/30 08:30:16;;;;;;;0.28;0.15;;;12.30;99.90;;;;;;4964209;28;20027;-75
2021/12/30 08:32:42;;;;;;;0.30;0.30;;;12.40;99.90;;;;;;4964904;28;20030;-76
2021/12/30 08:35:11;;;;;;;0.52;0.20;;;12.40;99.90;;;;;;4966476;28;20023;-76
2021/12/30 08:37:37;;;;;;;0.93;0.10;;;12.40;99.90;;;;;;4968714;28;20380;-76
2021/12/30 08:40:08;;;;;;;0.63;0.30;;;12.40;99.90;;;;;;4970977;28;20039;-76
2021/12/30 08:42:35;;;;;;;0.47;0.20;;;12.50;99.90;;;;;;4965850;28;20062;-73
2021/12/30 08:45:01;;;;;;;0.65;0.32;;;12.50;99.90;;;;;;4964052;28;20035;-76
2021/12/30 08:47:28;;;;;;;0.10;0.10;;;12.50;99.90;;;;;;4971685;28;20018;-75
2021/12/30 08:49:55;;;;;;;0.10;0.10;;;12.60;99.90;;;;;;4971979;28;20065;-72
2021/12/30 08:52:23;;;;;;;0.75;0.30;;;12.50;99.90;;;;;;4969019;28;20030;-73
2021/12/30 08:54:50;;;;;;;0.98;0.32;;;12.60;99.90;;;;;;4964619;28;20422;-74
2021/12/30 08:57:19;;;;;;;0.40;0.40;;;12.70;99.90;;;;;;4971680;28;20027;-72
2021/12/30 08:59:45;;;;;;;3.38;0.30;;;12.70;99.90;;;;;;4978710;28;20038;-72
2021/12/30 09:02:11;;;;;;;0.47;0.40;;;12.70;99.90;;;;;;4987366;28;20383;-71
2021/12/30 09:04:37;;;;;;;0.90;0.20;;;12.80;99.90;;;;;;4990923;28;20364;-73
2021/12/30 09:07:03;;;;;;;1.90;0.38;;;12.90;99.90;;;;;;4988619;28;20403;-73
2021/12/30 09:09:29;;;;;;;0.10;0.10;;;12.90;99.90;;;;;;4985808;28;20023;-76
2021/12/30 09:11:56;;;;;;;0.10;0.10;;;13.10;99.90;;;;;;4968577;28;20019;-75
2021/12/30 09:14:22;;;;;;;0.20;0.20;;;13.10;99.90;;;;;;4969712;28;20042;-76
2021/12/30 09:16:49;;;;;;;0.50;0.30;;;13.30;99.90;;;;;;4964303;28;20486;-77
2021/12/30 09:19:16;;;;;;;1.85;0.30;;;13.40;99.90;;;;;;4968888;28;20023;-71
2021/12/30 09:21:42;;;;;;;1.08;0.35;;;13.50;99.90;;;;;;4973392;28;20050;-74
2021/12/30 09:24:09;;;;;;;0.50;0.10;;;13.60;99.90;;;;;;4972369;28;20027;-74
2021/12/30 09:26:35;;;;;;;0.43;0.20;;;13.70;99.90;;;;;;4970669;28;20026;-76
2021/12/30 09:29:01;;;;;;;0.10;0.10;;;13.80;99.90;;;;;;4968444;28;20091;-72
2021/12/30 09:31:30;;;;;;;0.25;0.25;;;14.00;99.90;;;;;;4971787;28;20050;-75
2021/12/30 09:33:57;;;;;;;0.10;0.10;;;14.00;99.90;;;;;;4976146;28;20479;-74
2021/12/30 09:36:26;;;;;;;0.60;0.20;;;14.10;99.90;;;;;;4957769;28;20584;-74
2021/12/30 09:38:52;;;;;;;0.10;0.10;;;14.20;99.90;;;;;;4975601;28;20070;-76
2021/12/30 09:41:17;;;;;;;0.30;0.30;;;14.20;99.90;;;;;;4974865;28;20588;-76
2021/12/30 09:43:43;;;;;;;1.40;0.30;;;14.30;99.90;;;;;;4975288;28;20039;-75
2021/12/30 09:46:09;;;;;;;0.60;0.28;;;14.30;99.90;;;;;;4975498;28;20418;-76
2021/12/30 09:48:35;;;;;;;0.20;0.20;;;14.30;99.90;;;;;;4974915;28;20022;-75
2021/12/30 09:51:01;;;;;;;0.28;0.28;;;14.30;99.90;;;;;;4958329;28;20059;-73
2021/12/30 09:53:27;;;;;;;0.38;0.28;;;14.40;99.90;;;;;;4974935;28;20038;-75
2021/12/30 09:55:56;;;;;;;0.30;0.20;;;14.30;99.90;;;;;;4975110;28;20023;-75
2021/12/30 09:58:22;;;;;;;0.82;0.40;;;14.40;99.90;;;;;;4974882;28;20031;-74
2021/12/30 10:00:48;;;;;;;0.82;0.40;;;14.40;99.90;;;;;;4974593;28;20376;-74
2021/12/30 10:03:14;;;;;;;0.30;0.22;;;14.40;99.90;;;;;;4974914;28;20034;-71
2021/12/30 10:05:41;;;;;;;2.28;0.93;;;14.40;99.90;;;;;;4975120;28;20452;-73
2021/12/30 10:08:19;;;;;;;0.30;0.30;;;14.50;99.90;;;;;;4975124;28;20031;-74
2021/12/30 10:10:51;;;;;;;0.30;0.30;;;14.50;99.90;;;;;;4974904;28;20396;-73
2021/12/30 10:13:32;;;;;;;0.28;0.28;;;14.60;99.90;;;;;;4973730;28;20073;-73
2021/12/30 10:16:04;;;;;;;0.40;0.28;;;14.60;99.90;;;;;;4974728;28;20665;-73
2021/12/30 10:18:53;;;;;;;0.50;0.30;;;14.60;99.90;;;;;;4974052;28;20046;-73
2021/12/30 10:21:30;;;;;;;0.55;0.40;;;14.70;99.90;;;;;;4974229;28;20480;-72
2021/12/30 10:23:59;;;;;;;0.98;0.70;;;14.70;99.90;;;;;;4974422;28;20074;-73
2021/12/30 10:26:25;;;;;;;0.70;0.47;;;14.70;99.90;;;;;;4977763;28;20039;-78
2021/12/30 10:28:55;;;;;;;0.55;0.40;;;14.70;99.90;;;;;;4976544;28;20033;-81
2021/12/30 10:31:23;;;;;;;;;;;14.70;99.90;;;;;;4979915;28;20023;-79
2021/12/30 10:33:52;;;;;;;0.73;0.30;;;14.70;99.90;;;;;;4977038;28;19910;-88
2021/12/30 10:36:20;;;;;;;0.68;0.50;;;14.70;99.90;;;;;;4974627;28;20023;-79
2021/12/30 10:38:47;;;;;;;1.00;0.40;;;14.70;99.90;;;;;;4975020;28;20062;-71
2021/12/30 10:41:13;;;;;;;0.63;0.60;;;14.80;99.90;;;;;;4974468;28;20499;-76
2021/12/30 10:46:19;;;;;;;0.50;0.40;;;14.90;99.90;;;;;;4974525;28;20400;-79
2021/12/30 10:48:58;;;;;;;0.68;0.52;;;15.00;99.90;;;;;;4974929;28;20329;-73
2021/12/30 10:51:26;;;;;;;0.40;0.32;;;15.10;99.90;;;;;;4973957;28;20019;-71
2021/12/30 10:53:53;;;;;;;1.30;0.60;;;;;;;;;;4974015;28;20373;-73
2021/12/30 10:56:19;;;;;;;0.43;0.30;;;15.40;99.90;;;;;;4973979;28;20031;-71
2021/12/30 10:58:44;;;;;;;0.32;0.30;;;15.50;99.90;;;;;;4974603;28;20038;-73
2021/12/30 11:01:15;;;;;;;0.30;0.30;;;15.50;99.90;;;;;;4974165;28;20041;-73
2021/12/30 11:03:42;;;;;;;0.30;0.30;;;15.60;99.90;;;;;;4974348;28;20472;-72
2021/12/30 11:06:17;;;;;;;0.32;0.32;;;15.70;99.90;;;;;;4974207;28;20078;-73
2021/12/30 11:08:43;;;;;;;0.32;0.20;;;15.80;99.90;;;;;;4974392;28;20484;-73
2021/12/30 11:11:28;;;;;;;0.50;0.50;;;15.80;99.90;;;;;;4974370;28;20061;-73
2021/12/30 11:14:16;;;;;;;0.40;0.30;;;16.00;99.90;;;;;;4974073;28;20051;-73
2021/12/30 11:17:06;;;;;;;0.57;0.28;;;16.00;99.90;;;;;;4974599;28;20023;-73
2021/12/30 11:19:35;;;;;;;0.55;0.30;;;16.10;99.90;;;;;;4973907;28;20023;-74
2021/12/30 11:22:04;;;;;;;0.40;0.40;;;16.10;99.90;;;;;;4973834;28;20478;-73
2021/12/30 11:24:32;;;;;;;1.27;0.30;;;16.20;99.90;;;;;;4973655;28;20130;-80
2021/12/30 11:26:59;;;;;;;0.35;0.32;;;16.20;99.90;;;;;;4974178;28;20027;-72
2021/12/30 11:29:25;;;;;;;0.45;0.40;;;16.20;99.90;;;;;;4973508;28;20110;-73
2021/12/30 11:31:51;;;;;;;0.30;0.25;;;16.20;99.90;;;;;;4973769;28;20113;-72
2021/12/30 11:34:20;;;;;;;0.20;0.10;;;16.30;99.90;;;;;;4973300;28;20101;-72
2021/12/30 11:36:46;;;;;;;0.30;0.30;;;16.40;99.90;;;;;;4973702;28;20031;-71
2021/12/30 11:39:15;;;;;;;0.30;0.30;;;;;;;;;;4973428;28;20022;-69
2021/12/30 11:41:43;;;;;;;0.52;0.40;;;;;;;;;;4973307;28;20388;-72
2021/12/30 11:44:09;;;;;;;0.30;0.30;;;;;;;;;;4973972;28;20042;-73
2021/12/30 11:46:45;;;;;;;0.25;0.25;;;;;;;;;;4972764;28;20526;-72
2021/12/30 11:49:13;;;;;;;0.38;0.20;;;;;;;;;;4973317;28;20038;-73
2021/12/30 11:52:00;;;;;;;0.50;0.50;;;;;;;;;;4972663;28;20110;-72
2021/12/30 11:54:37;;;;;;;2.08;0.40;;;;;;;;;;4972784;28;20035;-72
2021/12/30 11:57:22;;;;;;;0.70;0.50;;;;;;;;;;4973382;28;20019;-72
2021/12/30 11:59:48;;;;;;;0.63;0.40;;;;;;;;;;4973314;28;20045;-74
2021/12/30 12:02:40;;;;;;;0.68;0.20;;;;;;;;;;4972562;28;20487;-75
2021/12/30 12:05:39;;;;;;;0.30;0.30;;;;;;;;;;4969444;28;20059;-73
2021/12/30 12:08:06;;;;;;;0.20;0.20;;;;;;;;;;4930849;28;20089;-73
2021/12/30 12:10:32;;;;;;;0.57;0.40;;;;;;;;;;4972636;28;20059;-73
2021/12/30 12:12:58;;;;;;;0.40;0.30;;;;;;;;;;4972888;28;20046;-70
2021/12/30 12:15:42;;;;;;;0.52;0.20;;;;;;;;;;4972149;28;20038;-72
2021/12/30 12:18:12;;;;;;;1.85;0.60;;;;;;;;;;4974369;28;20097;-72
2021/12/30 12:20:38;;;;;;;;;;;;;;;;;;4976521;28;20037;-73
2021/12/30 12:23:22;;;;;;;0.20;0.20;;;;;;;;;;4976743;28;19910;-72
2021/12/30 12:26:04;;;;;;;0.30;0.30;;;;;;;;;;4976843;28;20066;-72
2021/12/30 12:28:30;;;;;;;0.40;0.40;;;;;;;;;;4975802;28;20023;-73
2021/12/30 12:30:56;;;;;;;0.40;0.30;;;;;;;;;;4975134;28;20046;-74
2021/12/30 12:33:33;;;;;;;0.40;0.17;;;;;;;;;;4974779;28;20031;-73
2021/12/30 12:36:00;;;;;;;1.30;0.30;;;;;;;;;;4976661;28;20109;-73
2021/12/30 12:38:56;;;;;;;0.40;0.20;;;;;;;;;;4975997;28;20075;-72
2021/12/30 12:41:30;;;;;;;0.30;0.20;;;;;;;;;;4963507;28;20049;-72
2021/12/30 12:43:57;;;;;;;0.30;0.30;;;;;;;;;;4976564;28;20042;-73
2021/12/30 12:46:39;;;;;;;0.28;0.25;;;;;;;;;;4976041;28;20053;-72
2021/12/30 12:49:06;;;;;;;0.20;0.20;;;;;;;;;;4975018;28;20019;-73
2021/12/30 12:51:33;;;;;;;0.20;0.20;;;;;;;;;;4975810;28;20023;-72
2021/12/30 12:54:05;;;;;;;0.20;0.20;;;;;;;;;;4974684;28;20391;-72
2021/12/30 12:56:41;;;;;;;0.75;0.30;;;;;;;;;;4975285;28;20070;-72
2021/12/30 12:59:15;;;;;;;0.28;0.20;;;;;;;;;;4976355;28;20357;-74
2021/12/30 13:01:42;;;;;;;0.25;0.25;;;;;;;;;;4975710;28;20027;-73
2021/12/30 13:04:10;;;;;;;1.17;0.40;;;;;;;;;;4976119;28;20073;-74
2021/12/30 13:06:40;;;;;;;0.35;0.30;;;;;;;;;;4975262;28;20025;-76
2021/12/30 13:09:08;;;;;;;0.52;0.40;;;;;;;;;;4975933;28;20495;-74
2021/12/30 13:11:34;;;;;;;0.75;0.30;;;;;;;;;;4965120;28;20031;-74